sensor_id;sensor_type;location;lat;lon;timestamp;P1;P2;P0
13030;PMS7003;6582;54.644;9.760;2022-07-29T00:00:02;4.5;4.4;
13030;PMS7003;6582;54.644;9.760;2022-07-29T00:10:02;4.8;4.6;
13030;PMS7003;6582;54.644;9.760;2022-07-29T00:15:03;5.0;4.6;
13030;PMS7003;6582;54.644;9.760;2022-07-29T00:30:02;4.8;4.4;
13030;PMS7003;6582;54.644;9.760;2022-07-29T00:35:02;4.5;4.2;
13030;PMS7003;6582;54.644;9.760;2022-07-29T00:40:02;4.3;4.3;
13030;PMS7003;6582;54.644;9.760;2022-07-29T00:50:01;4.4;4.4;
13030;PMS7003;6582;54.644;9.760;2022-07-29T00:55:14;5.5;4.8;
13030;PMS7003;6582;54.644;9.760;2022-07-29T01:00:03;6.0;5.4;
13030;PMS7003;6582;54.644;9.760;2022-07-29T01:05:02;6.2;5.6;
13030;PMS7003;6582;54.644;9.760;2022-07-29T01:10:02;6.8;5.8;
13030;PMS7003;6582;54.644;9.760;2022-07-29T01:15:02;6.9;5.8;
13030;PMS7003;6582;54.644;9.760;2022-07-29T01:35:03;5.0;5.0;
13030;PMS7003;6582;54.644;9.760;2022-07-29T01:40:02;5.1;5.1;
13030;PMS7003;6582;54.644;9.760;2022-07-29T01:45:10;4.9;4.9;
13030;PMS7003;6582;54.644;9.760;2022-07-29T01:50:07;5.1;5.1;
13030;PMS7003;6582;54.644;9.760;2022-07-29T02:00:02;5.8;5.6;
13030;PMS7003;6582;54.644;9.760;2022-07-29T02:05:02;6.3;5.7;
13030;PMS7003;6582;54.644;9.760;2022-07-29T02:10:02;6.6;5.8;
13030;PMS7003;6582;54.644;9.760;2022-07-29T02:15:02;6.5;5.7;
13030;PMS7003;6582;54.644;9.760;2022-07-29T02:20:02;6.7;5.9;
13030;PMS7003;6582;54.644;9.760;2022-07-29T02:25:05;6.6;5.4;
13030;PMS7003;6582;54.644;9.760;2022-07-29T02:30:01;6.2;5.4;
13030;PMS7003;6582;54.644;9.760;2022-07-29T02:35:02;6.3;5.8;
13030;PMS7003;6582;54.644;9.760;2022-07-29T02:45:01;6.0;5.5;
13030;PMS7003;6582;54.644;9.760;2022-07-29T02:50:07;5.5;5.5;
13030;PMS7003;6582;54.644;9.760;2022-07-29T03:00:04;5.6;5.6;
13030;PMS7003;6582;54.644;9.760;2022-07-29T03:05:03;5.9;5.9;
13030;PMS7003;6582;54.644;9.760;2022-07-29T03:10:01;5.8;5.8;
13030;PMS7003;6582;54.644;9.760;2022-07-29T03:15:01;5.9;5.9;
13030;PMS7003;6582;54.644;9.760;2022-07-29T03:20:02;6.3;5.7;
13030;PMS7003;6582;54.644;9.760;2022-07-29T03:30:01;6.4;5.4;
13030;PMS7003;6582;54.644;9.760;2022-07-29T03:35:01;7.1;6.1;
13030;PMS7003;6582;54.644;9.760;2022-07-29T03:45:02;7.0;6.3;
13030;PMS7003;6582;54.644;9.760;2022-07-29T03:50:11;6.9;6.6;
13030;PMS7003;6582;54.644;9.760;2022-07-29T03:55:02;6.7;6.4;
13030;PMS7003;6582;54.644;9.760;2022-07-29T04:00:02;6.4;6.0;
13030;PMS7003;6582;54.644;9.760;2022-07-29T04:05:01;7.3;6.4;
13030;PMS7003;6582;54.644;9.760;2022-07-29T04:10:01;6.8;6.2;
13030;PMS7003;6582;54.644;9.760;2022-07-29T04:15:02;6.8;5.8;
13030;PMS7003;6582;54.644;9.760;2022-07-29T04:20:01;7.0;6.1;
13030;PMS7003;6582;54.644;9.760;2022-07-29T04:25:10;6.8;5.6;
13030;PMS7003;6582;54.644;9.760;2022-07-29T04:30:01;6.0;5.3;
13030;PMS7003;6582;54.644;9.760;2022-07-29T04:35:01;6.4;5.5;
13030;PMS7003;6582;54.644;9.760;2022-07-29T04:45:02;6.4;5.8;
13030;PMS7003;6582;54.644;9.760;2022-07-29T04:50:01;6.8;6.3;
13030;PMS7003;6582;54.644;9.760;2022-07-29T04:55:01;6.9;6.1;
13030;PMS7003;6582;54.644;9.760;2022-07-29T05:00:01;6.5;6.0;
13030;PMS7003;6582;54.644;9.760;2022-07-29T05:05:01;6.8;6.2;
13030;PMS7003;6582;54.644;9.760;2022-07-29T05:10:01;6.6;6.0;
13030;PMS7003;6582;54.644;9.760;2022-07-29T05:15:01;6.8;6.2;
13030;PMS7003;6582;54.644;9.760;2022-07-29T05:25:10;7.2;6.7;
13030;PMS7003;6582;54.644;9.760;2022-07-29T05:30:01;10.4;9.6;
13030;PMS7003;6582;54.644;9.760;2022-07-29T05:35:01;10.5;9.7;
13030;PMS7003;6582;54.644;9.760;2022-07-29T05:45:01;10.8;9.8;
13030;PMS7003;6582;54.644;9.760;2022-07-29T05:50:01;11.2;10.2;
13030;PMS7003;6582;54.644;9.760;2022-07-29T05:55:01;8.6;8.0;
13030;PMS7003;6582;54.644;9.760;2022-07-29T06:00:01;9.0;8.1;
13030;PMS7003;6582;54.644;9.760;2022-07-29T06:05:01;9.2;8.3;
13030;PMS7003;6582;54.644;9.760;2022-07-29T06:10:01;8.8;8.1;
13030;PMS7003;6582;54.644;9.760;2022-07-29T06:15:02;8.5;7.8;
13030;PMS7003;6582;54.644;9.760;2022-07-29T06:20:02;7.6;6.8;
13030;PMS7003;6582;54.644;9.760;2022-07-29T06:25:01;6.8;6.3;
13030;PMS7003;6582;54.644;9.760;2022-07-29T06:30:01;6.0;5.7;
13030;PMS7003;6582;54.644;9.760;2022-07-29T06:35:16;5.7;5.7;
13030;PMS7003;6582;54.644;9.760;2022-07-29T06:40:01;5.6;5.6;
13030;PMS7003;6582;54.644;9.760;2022-07-29T06:45:10;5.7;5.7;
13030;PMS7003;6582;54.644;9.760;2022-07-29T06:55:01;6.1;5.9;
13030;PMS7003;6582;54.644;9.760;2022-07-29T07:00:02;6.2;6.0;
13030;PMS7003;6582;54.644;9.760;2022-07-29T07:05:02;6.3;6.1;
13030;PMS7003;6582;54.644;9.760;2022-07-29T07:10:01;6.0;5.8;
13030;PMS7003;6582;54.644;9.760;2022-07-29T07:15:06;6.2;6.0;
13030;PMS7003;6582;54.644;9.760;2022-07-29T07:20:06;6.4;6.0;
13030;PMS7003;6582;54.644;9.760;2022-07-29T07:25:01;6.3;6.0;
13030;PMS7003;6582;54.644;9.760;2022-07-29T07:30:03;6.6;6.3;
13030;PMS7003;6582;54.644;9.760;2022-07-29T07:35:02;7.3;6.7;
13030;PMS7003;6582;54.644;9.760;2022-07-29T07:40:02;7.4;6.8;
13030;PMS7003;6582;54.644;9.760;2022-07-29T07:45:16;7.0;6.7;
13030;PMS7003;6582;54.644;9.760;2022-07-29T07:50:02;7.7;6.7;
13030;PMS7003;6582;54.644;9.760;2022-07-29T07:55:01;7.2;6.2;
13030;PMS7003;6582;54.644;9.760;2022-07-29T08:00:03;6.8;6.2;
13030;PMS7003;6582;54.644;9.760;2022-07-29T08:05:01;6.6;5.8;
13030;PMS7003;6582;54.644;9.760;2022-07-29T08:10:02;6.5;5.7;
13030;PMS7003;6582;54.644;9.760;2022-07-29T08:15:02;6.0;5.8;
13030;PMS7003;6582;54.644;9.760;2022-07-29T08:20:02;5.5;5.4;
13030;PMS7003;6582;54.644;9.760;2022-07-29T08:25:02;5.3;5.1;
13030;PMS7003;6582;54.644;9.760;2022-07-29T08:30:06;5.5;5.4;
13030;PMS7003;6582;54.644;9.760;2022-07-29T08:35:01;6.2;5.8;
13030;PMS7003;6582;54.644;9.760;2022-07-29T08:40:01;5.8;5.5;
13030;PMS7003;6582;54.644;9.760;2022-07-29T08:45:01;6.0;5.7;
13030;PMS7003;6582;54.644;9.760;2022-07-29T08:55:01;5.6;5.2;
13030;PMS7003;6582;54.644;9.760;2022-07-29T09:00:12;4.9;4.9;
13030;PMS7003;6582;54.644;9.760;2022-07-29T09:05:02;4.8;4.8;
13030;PMS7003;6582;54.644;9.760;2022-07-29T09:10:01;4.6;4.6;
13030;PMS7003;6582;54.644;9.760;2022-07-29T09:15:01;4.6;4.4;
13030;PMS7003;6582;54.644;9.760;2022-07-29T09:30:07;4.3;4.1;
13030;PMS7003;6582;54.644;9.760;2022-07-29T09:55:09;4.0;4.0;
13030;PMS7003;6582;54.644;9.760;2022-07-29T10:00:08;4.2;3.9;
13030;PMS7003;6582;54.644;9.760;2022-07-29T10:05:02;4.1;3.9;
13030;PMS7003;6582;54.644;9.760;2022-07-29T10:10:01;4.7;4.5;
13030;PMS7003;6582;54.644;9.760;2022-07-29T10:15:01;4.6;4.5;
13030;PMS7003;6582;54.644;9.760;2022-07-29T10:20:03;5.0;4.5;
13030;PMS7003;6582;54.644;9.760;2022-07-29T10:25:01;5.1;4.8;
13030;PMS7003;6582;54.644;9.760;2022-07-29T10:30:02;5.2;4.8;
13030;PMS7003;6582;54.644;9.760;2022-07-29T10:35:06;4.6;4.2;
13030;PMS7003;6582;54.644;9.760;2022-07-29T10:55:03;4.6;4.6;
13030;PMS7003;6582;54.644;9.760;2022-07-29T11:15:03;5.0;5.0;
13030;PMS7003;6582;54.644;9.760;2022-07-29T11:35:17;3.2;3.2;
13030;PMS7003;6582;54.644;9.760;2022-07-29T11:40:09;4.6;3.6;
13030;PMS7003;6582;54.644;9.760;2022-07-29T11:45:20;4.5;3.7;
13030;PMS7003;6582;54.644;9.760;2022-07-29T11:55:11;4.4;3.9;
13030;PMS7003;6582;54.644;9.760;2022-07-29T12:15:10;4.0;4.0;
13030;PMS7003;6582;54.644;9.760;2022-07-29T12:20:03;5.2;4.0;
13030;PMS7003;6582;54.644;9.760;2022-07-29T12:25:16;5.3;4.1;
13030;PMS7003;6582;54.644;9.760;2022-07-29T12:30:03;5.0;4.1;
13030;PMS7003;6582;54.644;9.760;2022-07-29T12:35:03;4.9;4.2;
13030;PMS7003;6582;54.644;9.760;2022-07-29T12:40:05;5.2;4.4;
13030;PMS7003;6582;54.644;9.760;2022-07-29T12:45:01;5.1;4.7;
13030;PMS7003;6582;54.644;9.760;2022-07-29T13:05:02;5.0;5.0;
13030;PMS7003;6582;54.644;9.760;2022-07-29T13:10:14;4.6;4.6;
13030;PMS7003;6582;54.644;9.760;2022-07-29T13:15:11;4.4;4.4;
13030;PMS7003;6582;54.644;9.760;2022-07-29T13:20:09;4.3;4.3;
13030;PMS7003;6582;54.644;9.760;2022-07-29T13:25:02;4.2;4.2;
13030;PMS7003;6582;54.644;9.760;2022-07-29T13:30:03;4.0;4.0;
13030;PMS7003;6582;54.644;9.760;2022-07-29T13:35:07;3.7;3.7;
13030;PMS7003;6582;54.644;9.760;2022-07-29T13:40:08;3.5;3.5;
13030;PMS7003;6582;54.644;9.760;2022-07-29T13:45:03;3.7;3.5;
13030;PMS7003;6582;54.644;9.760;2022-07-29T13:50:02;3.4;3.2;
13030;PMS7003;6582;54.644;9.760;2022-07-29T13:55:02;3.3;3.0;
13030;PMS7003;6582;54.644;9.760;2022-07-29T14:00:01;3.3;3.0;
13030;PMS7003;6582;54.644;9.760;2022-07-29T14:05:09;3.1;2.6;
13030;PMS7003;6582;54.644;9.760;2022-07-29T14:10:02;2.3;2.0;
13030;PMS7003;6582;54.644;9.760;2022-07-29T14:15:02;2.7;2.4;
13030;PMS7003;6582;54.644;9.760;2022-07-29T14:20:02;2.6;2.4;
13030;PMS7003;6582;54.644;9.760;2022-07-29T14:25:16;2.4;2.2;
13030;PMS7003;6582;54.644;9.760;2022-07-29T14:30:04;2.5;2.5;
13030;PMS7003;6582;54.644;9.760;2022-07-29T14:45:01;2.4;2.4;
13030;PMS7003;6582;54.644;9.760;2022-07-29T14:50:02;2.7;2.4;
13030;PMS7003;6582;54.644;9.760;2022-07-29T15:00:03;2.6;2.4;
13030;PMS7003;6582;54.644;9.760;2022-07-29T15:05:06;3.2;3.0;
13030;PMS7003;6582;54.644;9.760;2022-07-29T15:15:04;3.1;2.8;
13030;PMS7003;6582;54.644;9.760;2022-07-29T15:20:01;3.0;3.0;
13030;PMS7003;6582;54.644;9.760;2022-07-29T15:25:01;3.2;3.2;
13030;PMS7003;6582;54.644;9.760;2022-07-29T15:30:01;3.2;3.2;
13030;PMS7003;6582;54.644;9.760;2022-07-29T15:35:06;3.4;3.0;
13030;PMS7003;6582;54.644;9.760;2022-07-29T15:45:02;4.2;3.5;
13030;PMS7003;6582;54.644;9.760;2022-07-29T15:50:01;4.6;3.9;
13030;PMS7003;6582;54.644;9.760;2022-07-29T16:00:02;4.8;4.2;
13030;PMS7003;6582;54.644;9.760;2022-07-29T16:05:01;4.5;4.2;
13030;PMS7003;6582;54.644;9.760;2022-07-29T16:10:02;4.2;4.2;
13030;PMS7003;6582;54.644;9.760;2022-07-29T16:15:10;4.0;4.0;
13030;PMS7003;6582;54.644;9.760;2022-07-29T16:25:02;4.1;4.0;
13030;PMS7003;6582;54.644;9.760;2022-07-29T16:40:03;3.8;3.4;
13030;PMS7003;6582;54.644;9.760;2022-07-29T16:45:03;3.8;3.5;
13030;PMS7003;6582;54.644;9.760;2022-07-29T16:50:01;4.4;3.8;
13030;PMS7003;6582;54.644;9.760;2022-07-29T16:55:06;4.2;3.5;
13030;PMS7003;6582;54.644;9.760;2022-07-29T17:00:01;4.6;4.0;
13030;PMS7003;6582;54.644;9.760;2022-07-29T17:05:04;4.8;4.2;
13030;PMS7003;6582;54.644;9.760;2022-07-29T17:10:05;5.2;4.4;
13030;PMS7003;6582;54.644;9.760;2022-07-29T17:15:02;5.1;4.6;
13030;PMS7003;6582;54.644;9.760;2022-07-29T17:25:01;4.8;4.6;
13030;PMS7003;6582;54.644;9.760;2022-07-29T17:30:02;4.6;4.2;
13030;PMS7003;6582;54.644;9.760;2022-07-29T17:35:02;4.9;4.5;
13030;PMS7003;6582;54.644;9.760;2022-07-29T17:40:02;4.4;4.2;
13030;PMS7003;6582;54.644;9.760;2022-07-29T17:45:01;4.4;4.2;
13030;PMS7003;6582;54.644;9.760;2022-07-29T17:50:07;4.7;4.2;
13030;PMS7003;6582;54.644;9.760;2022-07-29T17:55:01;5.1;4.8;
13030;PMS7003;6582;54.644;9.760;2022-07-29T18:00:03;4.7;4.3;
13030;PMS7003;6582;54.644;9.760;2022-07-29T18:05:02;4.5;4.2;
13030;PMS7003;6582;54.644;9.760;2022-07-29T18:15:01;4.4;4.4;
13030;PMS7003;6582;54.644;9.760;2022-07-29T18:20:01;3.7;3.7;
13030;PMS7003;6582;54.644;9.760;2022-07-29T18:25:01;3.9;3.9;
13030;PMS7003;6582;54.644;9.760;2022-07-29T18:35:01;4.9;4.4;
13030;PMS7003;6582;54.644;9.760;2022-07-29T18:40:02;5.1;4.0;
13030;PMS7003;6582;54.644;9.760;2022-07-29T18:45:04;5.3;3.8;
13030;PMS7003;6582;54.644;9.760;2022-07-29T18:50:03;5.8;4.2;
13030;PMS7003;6582;54.644;9.760;2022-07-29T18:55:01;6.1;4.6;
13030;PMS7003;6582;54.644;9.760;2022-07-29T19:00:02;5.6;4.5;
13030;PMS7003;6582;54.644;9.760;2022-07-29T19:10:13;5.2;4.7;
13030;PMS7003;6582;54.644;9.760;2022-07-29T19:15:02;5.3;5.0;
13030;PMS7003;6582;54.644;9.760;2022-07-29T19:20:02;5.0;4.7;
13030;PMS7003;6582;54.644;9.760;2022-07-29T19:25:01;4.8;4.4;
13030;PMS7003;6582;54.644;9.760;2022-07-29T19:30:06;4.6;4.2;
13030;PMS7003;6582;54.644;9.760;2022-07-29T19:40:01;4.8;4.6;
13030;PMS7003;6582;54.644;9.760;2022-07-29T19:55:09;5.4;4.9;
13030;PMS7003;6582;54.644;9.760;2022-07-29T20:00:03;5.4;4.9;
13030;PMS7003;6582;54.644;9.760;2022-07-29T20:15:04;5.2;4.7;
13030;PMS7003;6582;54.644;9.760;2022-07-29T20:20:02;5.8;5.1;
13030;PMS7003;6582;54.644;9.760;2022-07-29T20:30:06;6.1;5.5;
13030;PMS7003;6582;54.644;9.760;2022-07-29T20:35:06;6.4;5.6;
13030;PMS7003;6582;54.644;9.760;2022-07-29T20:40:02;6.2;5.4;
13030;PMS7003;6582;54.644;9.760;2022-07-29T20:45:09;6.3;5.5;
13030;PMS7003;6582;54.644;9.760;2022-07-29T20:55:01;6.8;5.9;
13030;PMS7003;6582;54.644;9.760;2022-07-29T21:00:02;7.0;6.4;
13030;PMS7003;6582;54.644;9.760;2022-07-29T21:25:02;8.0;6.4;
13030;PMS7003;6582;54.644;9.760;2022-07-29T21:30:02;7.5;6.3;
13030;PMS7003;6582;54.644;9.760;2022-07-29T21:35:01;7.3;6.5;
13030;PMS7003;6582;54.644;9.760;2022-07-29T21:45:03;7.4;6.8;
13030;PMS7003;6582;54.644;9.760;2022-07-29T21:50:02;7.2;6.9;
13030;PMS7003;6582;54.644;9.760;2022-07-29T21:55:02;7.6;7.5;
13030;PMS7003;6582;54.644;9.760;2022-07-29T22:00:05;7.4;7.3;
13030;PMS7003;6582;54.644;9.760;2022-07-29T22:10:02;7.3;7.3;
13030;PMS7003;6582;54.644;9.760;2022-07-29T22:15:02;7.3;7.3;
13030;PMS7003;6582;54.644;9.760;2022-07-29T22:20:06;7.0;7.0;
13030;PMS7003;6582;54.644;9.760;2022-07-29T22:30:02;6.9;6.7;
13030;PMS7003;6582;54.644;9.760;2022-07-29T22:35:06;6.8;6.4;
13030;PMS7003;6582;54.644;9.760;2022-07-29T22:40:02;7.4;6.8;
13030;PMS7003;6582;54.644;9.760;2022-07-29T22:45:01;7.4;6.8;
13030;PMS7003;6582;54.644;9.760;2022-07-29T22:50:01;7.6;7.0;
13030;PMS7003;6582;54.644;9.760;2022-07-29T22:55:02;8.0;7.2;
13030;PMS7003;6582;54.644;9.760;2022-07-29T23:00:08;8.2;7.6;
13030;PMS7003;6582;54.644;9.760;2022-07-29T23:05:01;7.4;7.0;
13030;PMS7003;6582;54.644;9.760;2022-07-29T23:10:02;6.8;6.3;
13030;PMS7003;6582;54.644;9.760;2022-07-29T23:15:05;6.7;6.4;
13030;PMS7003;6582;54.644;9.760;2022-07-29T23:20:04;6.6;6.5;
13030;PMS7003;6582;54.644;9.760;2022-07-29T23:30:02;6.8;6.8;
13030;PMS7003;6582;54.644;9.760;2022-07-29T23:35:01;7.6;7.4;
13030;PMS7003;6582;54.644;9.760;2022-07-29T23:40:19;7.8;7.5;
13030;PMS7003;6582;54.644;9.760;2022-07-29T23:45:01;7.5;7.3;
13030;PMS7003;6582;54.644;9.760;2022-07-29T23:50:01;6.8;6.6;
13030;PMS7003;6582;54.644;9.760;2022-07-29T23:55:16;6.9;6.5;
